createdAt,value
2022-11-01T00:00:11.302Z,4.06
2022-11-01T00:01:13.733Z,4.56
2022-11-01T00:02:16.402Z,4.91
2022-11-01T00:03:18.961Z,4.93
2022-11-01T00:04:21.314Z,2.77
2022-11-01T00:05:23.691Z,4.17
2022-11-01T00:06:26.347Z,3.99
2022-11-01T00:07:28.699Z,8.11
2022-11-01T00:08:31.049Z,6.17
2022-11-01T00:09:33.399Z,8.06
2022-11-01T00:10:35.891Z,4.92
2022-11-01T00:11:38.244Z,5.71
2022-11-01T00:12:40.694Z,5.76
2022-11-01T00:13:43.046Z,4.65
2022-11-01T00:14:45.398Z,2.81
2022-11-01T00:15:47.788Z,5.11
2022-11-01T00:16:50.371Z,5.24
2022-11-01T00:17:52.792Z,7.73
2022-11-01T00:18:55.450Z,4.69
2022-11-01T00:19:57.805Z,3.31
2022-11-01T00:21:00.384Z,10.65
2022-11-01T00:22:02.751Z,5.78
2022-11-01T00:23:05.275Z,2.57
2022-11-01T00:24:08.059Z,5.86
2022-11-01T00:25:10.416Z,3.80
2022-11-01T00:26:13.120Z,3.31
2022-11-01T00:27:15.582Z,6.03
2022-11-01T00:28:17.937Z,4.69
2022-11-01T00:29:20.291Z,7.66
2022-11-01T00:30:23.001Z,4.05
2022-11-01T00:31:25.530Z,8.15
2022-11-01T00:32:27.982Z,5.93
2022-11-01T00:33:30.335Z,7.50
2022-11-01T00:34:32.688Z,3.21
2022-11-01T00:35:35.047Z,4.66
2022-11-01T00:36:37.730Z,6.61
2022-11-01T00:37:40.111Z,4.11
2022-11-01T00:38:42.550Z,9.36
2022-11-01T00:39:44.996Z,5.31
2022-11-01T00:40:47.749Z,3.80
2022-11-01T00:41:50.163Z,5.59
2022-11-01T00:42:52.514Z,4.71
2022-11-01T00:43:54.869Z,3.65
2022-11-01T00:44:57.222Z,3.82
2022-11-01T00:45:59.573Z,3.39
2022-11-01T00:47:02.250Z,3.81
2022-11-01T00:48:04.770Z,7.77
2022-11-01T00:49:07.560Z,2.40
2022-11-01T00:50:10.828Z,2.61
2022-11-01T00:51:13.177Z,6.36
2022-11-01T00:52:15.566Z,4.70
2022-11-01T00:53:17.925Z,2.58
2022-11-01T00:54:20.283Z,2.33
2022-11-01T00:55:22.665Z,8.10
2022-11-01T00:56:25.326Z,4.23
2022-11-01T00:57:27.814Z,4.62
2022-11-01T00:58:30.166Z,5.59
2022-11-01T00:59:32.520Z,3.53
2022-11-01T01:00:35.077Z,4.80
2022-11-01T01:01:37.512Z,7.54
2022-11-01T01:02:40.115Z,5.96
2022-11-01T01:03:42.585Z,3.65
2022-11-01T01:04:45.037Z,2.81
2022-11-01T01:05:47.392Z,4.94
2022-11-01T01:06:49.848Z,7.79
2022-11-01T01:07:52.287Z,4.69
2022-11-01T01:08:55.535Z,5.59
2022-11-01T01:09:57.891Z,4.39
2022-11-01T01:11:00.546Z,4.01
2022-11-01T01:12:02.897Z,4.01
2022-11-01T01:13:05.566Z,3.84
2022-11-01T01:14:08.236Z,9.38
2022-11-01T01:15:10.589Z,5.57
2022-11-01T01:16:13.545Z,6.04
2022-11-01T01:17:15.902Z,5.75
2022-11-01T01:18:18.284Z,7.96
2022-11-01T01:19:20.742Z,8.11
2022-11-01T01:20:23.298Z,7.72
2022-11-01T01:21:25.663Z,5.25
2022-11-01T01:22:28.011Z,5.35
2022-11-01T01:23:30.415Z,6.37
2022-11-01T01:24:32.768Z,6.11
2022-11-01T01:25:35.120Z,4.76
2022-11-01T01:26:38.078Z,5.08
2022-11-01T01:27:40.428Z,5.00
2022-11-01T01:28:44.709Z,5.38
2022-11-01T01:29:47.080Z,4.92
2022-11-01T01:30:49.732Z,7.35
2022-11-01T01:31:52.083Z,7.47
2022-11-01T01:32:54.539Z,11.36
2022-11-01T01:33:56.918Z,6.39
2022-11-01T01:34:59.272Z,9.95
2022-11-01T01:36:01.628Z,6.22
2022-11-01T01:37:04.016Z,5.19
2022-11-01T01:38:06.467Z,6.41
2022-11-01T01:39:08.859Z,10.92
2022-11-01T01:40:11.920Z,3.96
2022-11-01T01:41:14.276Z,6.67
2022-11-01T01:42:16.732Z,6.30
2022-11-01T01:43:19.093Z,4.49
2022-11-01T01:44:21.566Z,7.61
2022-11-01T01:45:23.918Z,7.67
2022-11-01T01:46:26.373Z,11.45
2022-11-01T01:47:28.721Z,9.75
2022-11-01T01:48:31.076Z,13.09
2022-11-01T01:49:36.356Z,5.56
2022-11-01T01:50:37.956Z,5.44
2022-11-01T01:51:40.342Z,4.22
2022-11-01T01:52:42.695Z,9.27
2022-11-01T01:53:45.044Z,6.87
2022-11-01T01:54:47.489Z,8.26
2022-11-01T01:55:49.937Z,9.65
2022-11-01T01:56:52.771Z,7.66
2022-11-01T01:57:55.121Z,4.04
2022-11-01T01:58:57.479Z,7.25
2022-11-01T01:59:59.856Z,4.88
2022-11-01T02:01:02.310Z,4.66
2022-11-01T02:02:05.204Z,3.85
2022-11-01T02:03:07.829Z,7.99
2022-11-01T02:04:10.179Z,5.78
2022-11-01T02:05:12.562Z,4.93
2022-11-01T02:06:15.289Z,4.86
2022-11-01T02:07:17.885Z,5.29
2022-11-01T02:08:20.254Z,4.99
2022-11-01T02:09:23.136Z,4.50
2022-11-01T02:10:26.944Z,4.64
2022-11-01T02:11:29.308Z,7.91
2022-11-01T02:12:31.670Z,6.38
2022-11-01T02:13:34.032Z,4.65
2022-11-01T02:14:36.394Z,3.67
2022-11-01T02:15:38.782Z,5.03
2022-11-01T02:16:41.341Z,5.43
2022-11-01T02:17:43.699Z,5.07
2022-11-01T02:18:46.064Z,6.67
2022-11-01T02:19:48.424Z,6.15
2022-11-01T02:20:51.531Z,5.57
2022-11-01T02:21:53.893Z,4.19
2022-11-01T02:22:56.252Z,3.61
2022-11-01T02:23:58.708Z,4.83
2022-11-01T02:25:01.067Z,6.69
2022-11-01T02:26:03.882Z,6.16
2022-11-01T02:27:06.244Z,6.05
2022-11-01T02:28:08.610Z,6.65
2022-11-01T02:29:10.968Z,5.50
2022-11-01T02:30:13.836Z,11.40
2022-11-01T02:31:16.318Z,5.57
2022-11-01T02:32:18.677Z,12.47
2022-11-01T02:33:21.039Z,7.00
2022-11-01T02:34:23.503Z,5.68
2022-11-01T02:35:25.859Z,9.71
2022-11-01T02:36:28.349Z,11.10
2022-11-01T02:37:30.714Z,7.85
2022-11-01T02:38:33.073Z,8.79
2022-11-01T02:39:35.432Z,12.13
2022-11-01T02:40:38.088Z,6.63
2022-11-01T02:41:40.880Z,7.34
2022-11-01T02:42:43.239Z,8.93
2022-11-01T02:43:45.600Z,8.71
2022-11-01T02:44:47.958Z,5.17
2022-11-01T02:45:50.315Z,4.47
2022-11-01T02:46:52.906Z,5.96
2022-11-01T02:47:55.266Z,4.03
2022-11-01T02:48:57.725Z,6.67
2022-11-01T02:50:00.094Z,5.45
2022-11-01T02:51:02.544Z,8.94
2022-11-01T02:52:04.949Z,5.07
2022-11-01T02:53:07.306Z,6.39
2022-11-01T02:54:09.765Z,4.20
2022-11-01T02:55:12.125Z,12.07
2022-11-01T02:56:15.418Z,5.08
2022-11-01T02:57:17.938Z,6.46
2022-11-01T02:58:20.397Z,7.18
2022-11-01T02:59:22.853Z,8.64
2022-11-01T03:00:25.410Z,12.25
2022-11-01T03:01:27.836Z,5.97
2022-11-01T03:02:30.485Z,5.55
2022-11-01T03:03:32.862Z,5.51
2022-11-01T03:04:35.406Z,8.22
2022-11-01T03:05:37.897Z,9.25
2022-11-01T03:06:40.562Z,4.99
2022-11-01T03:07:43.062Z,3.35
2022-11-01T03:08:47.313Z,6.02
2022-11-01T03:09:49.721Z,6.16
2022-11-01T03:10:52.584Z,5.19
2022-11-01T03:11:55.040Z,6.11
2022-11-01T03:12:58.131Z,5.47
2022-11-01T03:14:00.495Z,9.41
2022-11-01T03:15:02.855Z,6.25
2022-11-01T03:16:05.411Z,7.65
2022-11-01T03:17:07.818Z,5.48
2022-11-01T03:18:10.284Z,5.23
2022-11-01T03:19:12.884Z,4.57
2022-11-01T03:20:15.898Z,5.62
2022-11-01T03:21:18.405Z,6.79
2022-11-01T03:22:20.873Z,6.97
2022-11-01T03:23:23.350Z,3.97
2022-11-01T03:24:25.862Z,4.20
2022-11-01T03:25:28.382Z,6.31
2022-11-01T03:26:31.036Z,6.23
2022-11-01T03:27:33.508Z,7.55
2022-11-01T03:28:36.151Z,4.82
2022-11-01T03:29:38.610Z,5.58
2022-11-01T03:30:41.265Z,3.83
2022-11-01T03:31:43.627Z,6.69
2022-11-01T03:32:45.988Z,7.07
2022-11-01T03:33:48.477Z,7.96
2022-11-01T03:34:50.850Z,6.29
2022-11-01T03:35:53.310Z,5.15
2022-11-01T03:36:55.776Z,6.91
2022-11-01T03:37:58.198Z,6.82
2022-11-01T03:39:00.715Z,12.70
2022-11-01T03:40:03.485Z,4.20
2022-11-01T03:41:05.936Z,7.95
2022-11-01T03:42:08.334Z,4.82
2022-11-01T03:43:10.862Z,9.29
2022-11-01T03:44:13.360Z,10.65
2022-11-01T03:45:15.878Z,6.19
2022-11-01T03:46:19.246Z,5.36
2022-11-01T03:47:21.709Z,5.26
2022-11-01T03:48:24.152Z,5.87
2022-11-01T03:49:26.534Z,6.58
2022-11-01T03:50:29.270Z,7.33
2022-11-01T03:51:31.713Z,6.27
2022-11-01T03:52:34.072Z,6.74
2022-11-01T03:53:36.486Z,4.92
2022-11-01T03:54:39.069Z,7.00
2022-11-01T03:55:42.001Z,6.26
2022-11-01T03:56:44.746Z,8.72
2022-11-01T03:57:47.208Z,4.95
2022-11-01T03:58:49.568Z,5.54
2022-11-01T03:59:52.123Z,6.51
2022-11-01T04:00:55.206Z,9.61
2022-11-01T04:01:58.041Z,7.83
2022-11-01T04:03:01.062Z,8.00
2022-11-01T04:04:04.058Z,6.39
2022-11-01T04:05:06.701Z,6.58
2022-11-01T04:06:09.654Z,7.99
2022-11-01T04:07:12.108Z,9.57
2022-11-01T04:08:14.576Z,8.70
2022-11-01T04:09:17.238Z,6.70
2022-11-01T04:10:20.356Z,6.97
2022-11-01T04:11:22.816Z,6.25
2022-11-01T04:12:25.179Z,8.89
2022-11-01T04:13:27.642Z,6.01
2022-11-01T04:14:30.023Z,7.55
2022-11-01T04:15:32.628Z,7.09
2022-11-01T04:16:35.386Z,6.39
2022-11-01T04:17:37.750Z,5.19
2022-11-01T04:18:42.069Z,7.08
2022-11-01T04:19:44.594Z,7.99
2022-11-01T04:20:47.373Z,4.98
2022-11-01T04:21:49.824Z,5.08
2022-11-01T04:22:52.195Z,8.16
2022-11-01T04:23:54.548Z,6.31
2022-11-01T04:24:56.920Z,5.71
2022-11-01T04:25:59.424Z,8.37
2022-11-01T04:27:02.090Z,6.59
2022-11-01T04:28:04.440Z,8.21
2022-11-01T04:29:06.792Z,4.07
2022-11-01T04:30:09.765Z,6.10
2022-11-01T04:31:12.257Z,6.14
2022-11-01T04:32:14.610Z,6.08
2022-11-01T04:33:16.962Z,4.87
2022-11-01T04:34:19.428Z,4.48
2022-11-01T04:35:21.780Z,3.05
2022-11-01T04:36:25.147Z,4.02
2022-11-01T04:37:27.617Z,3.62
2022-11-01T04:38:29.971Z,6.99
2022-11-01T04:39:32.420Z,7.94
2022-11-01T04:40:34.871Z,3.55
2022-11-01T04:41:37.353Z,3.19
2022-11-01T04:42:39.709Z,4.26
2022-11-01T04:43:42.059Z,3.86
2022-11-01T04:44:44.423Z,5.27
2022-11-01T04:45:46.788Z,3.24
2022-11-01T04:46:49.369Z,6.23
2022-11-01T04:47:51.735Z,8.00
2022-11-01T04:48:54.217Z,4.75
2022-11-01T04:49:57.145Z,6.15
2022-11-01T04:51:00.144Z,8.31
2022-11-01T04:52:03.510Z,6.45
2022-11-01T04:53:06.390Z,3.68
2022-11-01T04:54:09.043Z,5.54
2022-11-01T04:55:11.654Z,9.28
2022-11-01T04:56:15.342Z,7.64
2022-11-01T04:57:17.847Z,10.84
2022-11-01T04:58:20.204Z,8.22
2022-11-01T04:59:22.559Z,8.38
2022-11-01T05:00:26.129Z,5.32
2022-11-01T05:01:28.632Z,7.43
2022-11-01T05:02:31.313Z,6.37
2022-11-01T05:03:33.671Z,8.62
2022-11-01T05:04:36.030Z,4.54
2022-11-01T05:05:38.391Z,7.93
2022-11-01T05:06:41.050Z,9.74
2022-11-01T05:07:43.558Z,10.97
2022-11-01T05:08:45.917Z,10.51
2022-11-01T05:09:48.273Z,15.96
2022-11-01T05:10:50.731Z,10.75
2022-11-01T05:11:53.194Z,9.73
2022-11-01T05:12:55.599Z,7.32
2022-11-01T05:13:57.956Z,14.65
2022-11-01T05:15:00.317Z,8.39
2022-11-01T05:16:20.206Z,9.21
2022-11-01T05:17:07.202Z,11.78
2022-11-01T05:18:09.683Z,6.44
2022-11-01T05:19:12.051Z,7.33
2022-11-01T05:20:14.816Z,4.71
2022-11-01T05:21:17.173Z,10.67
2022-11-01T05:22:19.633Z,10.26
2022-11-01T05:23:22.118Z,5.85
2022-11-01T05:24:24.476Z,7.55
2022-11-01T05:25:26.844Z,9.61
2022-11-01T05:26:29.607Z,10.78
2022-11-01T05:27:32.068Z,7.31
2022-11-01T05:28:34.474Z,7.52
2022-11-01T05:29:36.834Z,8.67
2022-11-01T05:30:39.695Z,8.49
2022-11-01T05:31:42.059Z,7.04
2022-11-01T05:32:44.517Z,8.43
2022-11-01T05:33:47.208Z,5.84
2022-11-01T05:34:49.585Z,3.70
2022-11-01T05:35:52.049Z,6.68
2022-11-01T05:36:54.704Z,6.54
2022-11-01T05:37:57.164Z,12.10
2022-11-01T05:38:59.561Z,10.71
2022-11-01T05:40:02.038Z,8.77
2022-11-01T05:41:04.536Z,4.79
2022-11-01T05:42:07.180Z,10.27
2022-11-01T05:43:09.836Z,4.48
2022-11-01T05:44:12.244Z,7.01
2022-11-01T05:45:14.601Z,9.91
2022-11-01T05:46:17.259Z,9.09
2022-11-01T05:47:19.616Z,4.44
2022-11-01T05:48:21.980Z,4.97
2022-11-01T05:49:24.375Z,3.63
2022-11-01T05:50:27.034Z,4.32
2022-11-01T05:51:29.394Z,10.91
2022-11-01T05:52:31.772Z,10.86
2022-11-01T05:53:34.131Z,5.79
2022-11-01T05:54:36.546Z,4.95
2022-11-01T05:55:38.942Z,11.13
2022-11-01T05:56:41.378Z,5.30
2022-11-01T05:57:43.794Z,4.73
2022-11-01T05:58:46.507Z,6.64
2022-11-01T05:59:48.993Z,6.55
2022-11-01T06:00:51.570Z,3.37
2022-11-01T06:01:54.140Z,5.25
2022-11-01T06:02:57.119Z,6.26
2022-11-01T06:03:59.618Z,7.34
2022-11-01T06:05:03.292Z,4.59
2022-11-01T06:06:06.409Z,4.22
2022-11-01T06:07:08.770Z,5.49
2022-11-01T06:08:11.129Z,4.13
2022-11-01T06:09:14.440Z,6.15
2022-11-01T06:10:17.101Z,9.03
2022-11-01T06:11:19.468Z,4.92
2022-11-01T06:12:21.932Z,4.55
2022-11-01T06:13:24.424Z,4.85
2022-11-01T06:14:26.942Z,5.48
2022-11-01T06:15:29.616Z,8.78
2022-11-01T06:16:32.470Z,4.71
2022-11-01T06:17:34.832Z,4.55
2022-11-01T06:18:37.299Z,8.13
2022-11-01T06:19:39.821Z,6.78
2022-11-01T06:20:42.640Z,5.95
2022-11-01T06:21:45.001Z,5.19
2022-11-01T06:22:47.464Z,9.31
2022-11-01T06:23:49.824Z,9.49
2022-11-01T06:24:52.179Z,9.45
2022-11-01T06:25:54.587Z,6.71
2022-11-01T06:26:57.348Z,7.41
2022-11-01T06:28:00.271Z,7.33
2022-11-01T06:29:02.965Z,5.53
2022-11-01T06:30:05.644Z,5.13
2022-11-01T06:31:08.125Z,5.91
2022-11-01T06:32:10.581Z,5.39
2022-11-01T06:33:12.936Z,4.51
2022-11-01T06:34:15.391Z,5.81
2022-11-01T06:35:18.247Z,7.07
2022-11-01T06:36:21.223Z,6.52
2022-11-01T06:37:24.061Z,8.35
2022-11-01T06:38:26.441Z,6.03
2022-11-01T06:39:28.791Z,4.37
2022-11-01T06:40:31.357Z,4.99
2022-11-01T06:41:33.838Z,6.20
2022-11-01T06:42:36.198Z,4.58
2022-11-01T06:43:38.644Z,5.01
2022-11-01T06:44:41.036Z,9.83
2022-11-01T06:45:43.451Z,5.65
2022-11-01T06:46:46.359Z,5.40
2022-11-01T06:47:48.727Z,8.01
2022-11-01T06:48:51.091Z,7.09
2022-11-01T06:49:53.446Z,5.31
2022-11-01T06:50:56.033Z,5.93
2022-11-01T06:51:58.862Z,6.64
2022-11-01T06:53:01.316Z,2.56
2022-11-01T06:54:03.718Z,5.88
2022-11-01T06:55:06.158Z,4.73
2022-11-01T06:56:09.320Z,7.92
2022-11-01T06:57:11.826Z,8.89
2022-11-01T06:58:14.171Z,3.52
2022-11-01T06:59:16.531Z,7.73
2022-11-01T07:00:19.079Z,6.70
2022-11-01T07:01:21.552Z,7.79
2022-11-01T07:02:29.460Z,7.52
2022-11-01T07:03:28.406Z,5.29
2022-11-01T07:04:30.867Z,6.27
2022-11-01T07:05:36.131Z,6.60
2022-11-01T07:06:37.601Z,7.68
2022-11-01T07:07:40.005Z,6.31
2022-11-01T07:08:42.761Z,7.29
2022-11-01T07:09:45.115Z,7.65
2022-11-01T07:10:47.571Z,6.69
2022-11-01T07:11:49.926Z,8.01
2022-11-01T07:12:52.305Z,8.07
2022-11-01T07:13:54.660Z,11.94
2022-11-01T07:14:57.023Z,3.77
2022-11-01T07:15:59.490Z,7.43
2022-11-01T07:17:02.048Z,7.34
2022-11-01T07:18:04.863Z,4.09
2022-11-01T07:19:07.692Z,10.50
2022-11-01T07:20:10.344Z,4.75
2022-11-01T07:21:12.710Z,5.53
2022-11-01T07:22:15.101Z,7.19
2022-11-01T07:23:17.499Z,7.30
2022-11-01T07:24:19.953Z,7.23
2022-11-01T07:25:22.308Z,7.78
2022-11-01T07:26:24.860Z,4.97
2022-11-01T07:27:27.214Z,4.18
2022-11-01T07:28:29.611Z,2.77
2022-11-01T07:29:31.966Z,8.57
2022-11-01T07:30:34.616Z,8.16
2022-11-01T07:31:36.967Z,6.91
2022-11-01T07:32:40.024Z,4.09
2022-11-01T07:33:42.648Z,4.41
2022-11-01T07:34:45.108Z,3.60
2022-11-01T07:35:47.466Z,8.12
2022-11-01T07:36:50.022Z,6.37
2022-11-01T07:37:52.376Z,9.44
2022-11-01T07:38:54.774Z,10.20
2022-11-01T07:39:57.129Z,5.59
2022-11-01T07:40:59.780Z,5.07
2022-11-01T07:42:02.135Z,6.27
2022-11-01T07:43:04.489Z,9.03
2022-11-01T07:44:06.885Z,4.48
2022-11-01T07:45:12.971Z,4.18
2022-11-01T07:46:13.813Z,4.86
2022-11-01T07:47:16.273Z,15.63
2022-11-01T07:48:18.628Z,2.31
2022-11-01T07:49:21.131Z,3.47
2022-11-01T07:50:23.785Z,4.57
2022-11-01T07:51:26.162Z,6.03
2022-11-01T07:52:28.524Z,4.61
2022-11-01T07:53:30.878Z,4.28
2022-11-01T07:54:33.266Z,7.27
2022-11-01T07:55:35.653Z,5.51
2022-11-01T07:56:38.299Z,8.05
2022-11-01T07:57:40.654Z,11.58
2022-11-01T07:58:43.008Z,8.72
2022-11-01T07:59:45.491Z,9.00
2022-11-01T08:00:48.217Z,5.20
2022-11-01T08:01:51.138Z,4.54
2022-11-01T08:02:53.729Z,6.25
2022-11-01T08:03:56.079Z,5.39
2022-11-01T08:04:58.478Z,6.00
2022-11-01T08:06:00.828Z,6.15
2022-11-01T08:07:03.185Z,4.17
2022-11-01T08:08:06.102Z,7.83
2022-11-01T08:09:09.021Z,6.94
2022-11-01T08:10:12.423Z,4.76
2022-11-01T08:11:14.877Z,3.65
2022-11-01T08:12:17.230Z,4.56
2022-11-01T08:13:19.581Z,6.37
2022-11-01T08:14:21.935Z,6.88
2022-11-01T08:15:24.329Z,5.11
2022-11-01T08:16:26.789Z,6.13
2022-11-01T08:17:29.140Z,8.23
2022-11-01T08:18:31.494Z,7.31
2022-11-01T08:19:33.846Z,5.03
2022-11-01T08:20:36.644Z,5.03
2022-11-01T08:21:39.053Z,4.35
2022-11-01T08:22:41.587Z,6.60
2022-11-01T08:23:44.293Z,7.97
2022-11-01T08:24:46.747Z,2.86
2022-11-01T08:25:49.145Z,3.88
2022-11-01T08:26:51.708Z,4.42
2022-11-01T08:27:54.160Z,4.61
2022-11-01T08:28:56.506Z,5.17
2022-11-01T08:29:58.864Z,5.45
2022-11-01T08:31:01.464Z,4.14
2022-11-01T08:32:03.822Z,4.21
2022-11-01T08:33:06.721Z,2.51
2022-11-01T08:34:13.207Z,4.19
2022-11-01T08:35:13.720Z,3.22
2022-11-01T08:36:16.705Z,6.75
2022-11-01T08:37:19.066Z,4.99
2022-11-01T08:38:21.416Z,2.93
2022-11-01T08:39:23.777Z,3.78
2022-11-01T08:40:26.429Z,3.89
2022-11-01T08:41:28.860Z,3.15
2022-11-01T08:42:31.236Z,4.87
2022-11-01T08:43:37.969Z,3.05
2022-11-01T08:44:37.867Z,3.60
2022-11-01T08:45:40.229Z,3.43
2022-11-01T08:46:42.720Z,3.23
2022-11-01T08:47:45.183Z,4.15
2022-11-01T08:48:47.635Z,2.44
2022-11-01T08:49:49.991Z,3.36
2022-11-01T08:50:52.450Z,5.00
2022-11-01T08:51:54.870Z,6.73
2022-11-01T08:52:57.323Z,5.11
2022-11-01T08:53:59.787Z,4.53
2022-11-01T08:55:02.255Z,5.86
2022-11-01T08:56:04.917Z,4.57
2022-11-01T08:57:07.409Z,5.23
2022-11-01T08:58:09.856Z,6.33
2022-11-01T08:59:12.233Z,9.25
2022-11-01T09:00:15.293Z,12.95
2022-11-01T09:01:17.781Z,6.08
2022-11-01T09:02:20.444Z,3.43
2022-11-01T09:03:23.021Z,5.03
2022-11-01T09:04:25.486Z,6.19
2022-11-01T09:05:27.843Z,7.69
2022-11-01T09:06:33.863Z,7.98
2022-11-01T09:07:34.719Z,11.18
2022-11-01T09:08:37.187Z,23.01
2022-11-01T09:09:39.663Z,21.20
2022-11-01T09:10:42.223Z,22.01
2022-11-01T09:11:44.683Z,11.21
2022-11-01T09:12:47.084Z,8.26
2022-11-01T09:13:49.558Z,17.66
2022-11-01T09:14:52.002Z,28.05
2022-11-01T09:15:57.250Z,55.61
2022-11-01T09:16:58.942Z,34.68
2022-11-01T09:18:01.335Z,73.28
2022-11-01T09:19:03.703Z,56.87
2022-11-01T09:20:06.260Z,90.35
2022-11-01T09:21:08.623Z,46.09
2022-11-01T09:22:10.984Z,12.87
2022-11-01T09:23:13.377Z,24.78
2022-11-01T09:24:15.746Z,30.07
2022-11-01T09:25:18.122Z,50.97
2022-11-01T09:26:20.478Z,21.03
2022-11-01T09:27:22.847Z,36.93
2022-11-01T09:28:28.821Z,38.77
2022-11-01T09:29:29.668Z,24.54
2022-11-01T09:30:32.391Z,26.46
2022-11-01T09:31:34.848Z,34.43
2022-11-01T09:32:37.209Z,21.34
2022-11-01T09:33:39.599Z,11.59
2022-11-01T09:34:41.959Z,10.37
2022-11-01T09:35:49.932Z,10.11
2022-11-01T09:36:48.995Z,11.51
2022-11-01T09:37:51.460Z,14.09
2022-11-01T09:38:53.843Z,7.89
2022-11-01T09:39:56.195Z,9.09
2022-11-01T09:40:58.759Z,5.28
2022-11-01T09:42:01.214Z,7.21
2022-11-01T09:43:03.940Z,8.28
2022-11-01T09:44:06.782Z,13.71
2022-11-01T09:45:09.242Z,8.25
2022-11-01T09:46:13.461Z,7.91
2022-11-01T09:47:16.000Z,9.29
2022-11-01T09:48:18.458Z,8.29
2022-11-01T09:49:21.007Z,14.33
2022-11-01T09:50:23.686Z,9.17
2022-11-01T09:51:26.141Z,7.77
2022-11-01T09:52:28.499Z,6.43
2022-11-01T09:53:30.962Z,5.47
2022-11-01T09:54:33.470Z,7.09
2022-11-01T09:55:35.827Z,4.80
2022-11-01T09:56:38.207Z,9.62
2022-11-01T09:57:40.566Z,11.37
2022-11-01T09:58:42.945Z,13.97
2022-11-01T09:59:45.358Z,9.40
2022-11-01T10:00:48.001Z,6.71
2022-11-01T10:01:50.662Z,7.75
2022-11-01T10:02:53.239Z,6.57
2022-11-01T10:03:55.712Z,8.85
2022-11-01T10:04:58.131Z,9.76
2022-11-01T10:06:00.594Z,7.45
2022-11-01T10:07:03.054Z,7.44
2022-11-01T10:08:05.740Z,7.49
2022-11-01T10:09:08.376Z,11.44
2022-11-01T10:10:11.063Z,7.48
2022-11-01T10:11:13.539Z,12.09
2022-11-01T10:12:16.006Z,9.77
2022-11-01T10:13:18.457Z,9.66
2022-11-01T10:14:20.817Z,7.81
2022-11-01T10:15:23.313Z,20.67
2022-11-01T10:16:25.770Z,22.00
2022-11-01T10:17:28.133Z,16.15
2022-11-01T10:18:30.493Z,13.53
2022-11-01T10:19:32.957Z,9.27
2022-11-01T10:20:35.566Z,6.82
2022-11-01T10:21:38.026Z,3.50
2022-11-01T10:22:40.382Z,10.40
2022-11-01T10:23:42.748Z,9.97
2022-11-01T10:24:45.329Z,6.40
2022-11-01T10:25:47.735Z,12.50
2022-11-01T10:26:50.395Z,8.79
2022-11-01T10:27:52.775Z,6.51
2022-11-01T10:28:55.240Z,10.67
2022-11-01T10:29:57.693Z,10.33
2022-11-01T10:31:00.481Z,6.48
2022-11-01T10:32:02.938Z,6.51
2022-11-01T10:33:05.453Z,6.77
2022-11-01T10:34:08.164Z,7.30
2022-11-01T10:35:10.522Z,11.33
2022-11-01T10:36:13.229Z,8.81
2022-11-01T10:37:15.595Z,10.09
2022-11-01T10:38:38.142Z,8.33
2022-11-01T10:39:53.451Z,7.93
2022-11-01T10:40:26.909Z,7.87
2022-11-01T10:41:29.294Z,5.15
2022-11-01T10:42:31.655Z,6.63
2022-11-01T10:43:34.019Z,7.44
2022-11-01T10:44:36.377Z,10.27
2022-11-01T10:45:42.322Z,7.85
2022-11-01T10:46:43.239Z,5.50
2022-11-01T10:47:45.596Z,4.26
2022-11-01T10:48:47.956Z,8.68
2022-11-01T10:50:05.492Z,16.15
2022-11-01T10:50:54.796Z,26.10
2022-11-01T10:51:57.192Z,25.90
2022-11-01T10:52:59.961Z,17.61
2022-11-01T10:54:02.421Z,22.27
2022-11-01T10:55:04.873Z,40.25
2022-11-01T10:56:07.532Z,195.71
2022-11-01T10:57:10.079Z,80.74
2022-11-01T10:58:12.538Z,43.52
2022-11-01T10:59:14.895Z,92.19
2022-11-01T11:00:17.250Z,158.79
2022-11-01T11:01:19.726Z,99.25
2022-11-01T11:02:22.568Z,47.96
2022-11-01T11:03:25.355Z,11.94
2022-11-01T11:04:27.708Z,7.97
2022-11-01T11:05:30.073Z,5.22
2022-11-01T11:06:32.739Z,12.03
2022-11-01T11:07:35.479Z,13.39
2022-11-01T11:08:37.843Z,23.01
2022-11-01T11:09:40.206Z,13.23
2022-11-01T11:10:42.807Z,8.41
2022-11-01T11:11:45.376Z,14.45
2022-11-01T11:12:47.836Z,9.33
2022-11-01T11:13:50.300Z,8.68
2022-11-01T11:14:52.668Z,31.58
2022-11-01T11:15:55.149Z,30.92
2022-11-01T11:16:57.818Z,12.81
2022-11-01T11:18:00.616Z,9.46
2022-11-01T11:19:02.980Z,110.43
2022-11-01T11:20:05.551Z,45.70
2022-11-01T11:21:08.055Z,72.11
2022-11-01T11:22:10.527Z,51.89
2022-11-01T11:23:13.054Z,12.43
2022-11-01T11:24:15.540Z,21.99
2022-11-01T11:25:17.997Z,16.22
2022-11-01T11:26:20.764Z,19.61
2022-11-01T11:27:23.317Z,12.91
2022-11-01T11:28:25.811Z,16.93
2022-11-01T11:29:28.175Z,34.87
2022-11-01T11:30:30.765Z,20.58
2022-11-01T11:31:33.245Z,9.63
2022-11-01T11:32:35.695Z,10.89
2022-11-01T11:33:38.540Z,5.70
2022-11-01T11:34:41.006Z,8.26
2022-11-01T11:35:43.474Z,8.14
2022-11-01T11:36:46.135Z,8.11
2022-11-01T11:37:48.598Z,16.10
2022-11-01T11:38:51.105Z,5.30
2022-11-01T11:39:53.575Z,7.19
2022-11-01T11:40:56.140Z,10.33
2022-11-01T11:41:58.613Z,5.87
2022-11-01T11:43:01.154Z,8.83
2022-11-01T11:44:03.896Z,7.87
2022-11-01T11:45:06.368Z,8.50
2022-11-01T11:46:09.257Z,5.62
2022-11-01T11:47:11.620Z,4.63
2022-11-01T11:48:14.089Z,6.92
2022-11-01T11:49:16.504Z,6.29
2022-11-01T11:50:19.270Z,7.50
2022-11-01T11:51:21.774Z,9.91
2022-11-01T11:52:28.313Z,13.64
2022-11-01T11:53:28.511Z,5.17
2022-11-01T11:54:31.013Z,9.01
2022-11-01T11:55:33.482Z,9.53
2022-11-01T11:56:36.247Z,10.97
2022-11-01T11:57:38.609Z,11.85
2022-11-01T11:58:40.987Z,5.05
2022-11-01T11:59:43.532Z,8.58
2022-11-01T12:00:46.546Z,7.76
2022-11-01T12:01:49.116Z,8.33
2022-11-01T12:02:52.030Z,7.06
2022-11-01T12:03:54.642Z,7.33
2022-11-01T12:04:57.147Z,6.77
2022-11-01T12:05:59.648Z,6.70
2022-11-01T12:07:02.304Z,11.45
2022-11-01T12:08:04.764Z,5.65
2022-11-01T12:09:07.129Z,12.96
2022-11-01T12:10:10.332Z,10.55
2022-11-01T12:11:12.734Z,4.41
2022-11-01T12:12:15.193Z,6.47
2022-11-01T12:13:17.655Z,7.51
2022-11-01T12:14:20.125Z,7.83
2022-11-01T12:15:22.633Z,8.33
2022-11-01T12:16:25.410Z,14.18
2022-11-01T12:17:28.113Z,7.41
2022-11-01T12:18:30.541Z,5.16
2022-11-01T12:19:32.903Z,4.54
2022-11-01T12:20:35.495Z,9.33
2022-11-01T12:21:37.868Z,6.87
2022-11-01T12:22:40.324Z,7.28
2022-11-01T12:23:42.695Z,7.78
2022-11-01T12:24:45.165Z,9.33
2022-11-01T12:25:47.698Z,7.97
2022-11-01T12:26:50.268Z,10.29
2022-11-01T12:27:52.737Z,9.31
2022-11-01T12:28:55.208Z,9.17
2022-11-01T12:29:57.678Z,9.73
2022-11-01T12:31:00.376Z,8.09
2022-11-01T12:32:02.845Z,15.79
2022-11-01T12:33:05.382Z,9.27
2022-11-01T12:34:07.987Z,9.63
2022-11-01T12:35:10.455Z,4.91
2022-11-01T12:36:13.667Z,6.53
2022-11-01T12:37:16.168Z,8.07
2022-11-01T12:38:18.620Z,6.84
2022-11-01T12:39:20.992Z,9.28
2022-11-01T12:40:23.762Z,11.61
2022-11-01T12:41:26.256Z,10.92
2022-11-01T12:42:28.625Z,6.31
2022-11-01T12:43:31.092Z,31.47
2022-11-01T12:44:33.602Z,22.28
2022-11-01T12:45:36.062Z,12.75
2022-11-01T12:46:38.870Z,47.44
2022-11-01T12:47:41.264Z,20.82
2022-11-01T12:48:43.723Z,30.75
2022-11-01T12:49:46.191Z,26.51
2022-11-01T12:50:48.891Z,23.11
2022-11-01T12:51:51.368Z,36.96
2022-11-01T12:52:53.837Z,34.33
2022-11-01T12:53:56.491Z,26.78
2022-11-01T12:54:59.351Z,27.84
2022-11-01T12:56:01.803Z,15.87
2022-11-01T12:57:04.220Z,22.69
2022-11-01T12:58:07.645Z,26.97
2022-11-01T12:59:10.838Z,22.08
2022-11-01T13:00:14.418Z,28.97
2022-11-01T13:01:16.918Z,28.41
2022-11-01T13:02:19.791Z,19.39
2022-11-01T13:03:22.403Z,34.53
2022-11-01T13:04:28.953Z,41.95
2022-11-01T13:05:29.059Z,24.04
2022-11-01T13:06:31.616Z,13.97
2022-11-01T13:07:34.060Z,13.93
2022-11-01T13:08:36.546Z,16.14
2022-11-01T13:09:38.924Z,16.42
2022-11-01T13:11:44.088Z,29.17
2022-11-01T13:12:46.479Z,33.60
2022-11-01T13:13:48.837Z,33.59
2022-11-01T13:14:51.198Z,26.93
2022-11-01T13:15:53.674Z,22.23
2022-11-01T13:16:56.249Z,19.95
2022-11-01T13:17:58.773Z,22.60
2022-11-01T13:19:01.243Z,15.07
2022-11-01T13:20:04.008Z,18.97
2022-11-01T13:21:06.582Z,23.87
2022-11-01T13:22:09.069Z,19.53
2022-11-01T13:23:11.482Z,11.51
2022-11-01T13:24:13.878Z,8.69
2022-11-01T13:25:16.352Z,9.85
2022-11-01T13:26:19.004Z,9.78
2022-11-01T13:27:21.369Z,6.69
2022-11-01T13:28:23.767Z,7.15
2022-11-01T13:29:26.131Z,5.70
2022-11-01T13:30:28.801Z,14.58
2022-11-01T13:31:31.295Z,26.27
2022-11-01T13:32:34.648Z,26.83
2022-11-01T13:33:37.486Z,32.88
2022-11-01T13:34:39.944Z,23.45
2022-11-01T13:35:42.305Z,25.87
2022-11-01T13:36:45.066Z,18.88
2022-11-01T13:37:47.529Z,11.97
2022-11-01T13:38:49.920Z,11.77
2022-11-01T13:39:52.309Z,9.73
2022-11-01T13:40:54.861Z,10.87
2022-11-01T13:41:57.224Z,10.41
2022-11-01T13:43:04.260Z,9.11
2022-11-01T13:44:04.125Z,10.36
2022-11-01T13:45:06.576Z,9.44
2022-11-01T13:46:09.768Z,13.47
2022-11-01T13:47:12.249Z,13.70